createdAt,value
2019-05-05T00:01:07.655Z,10.40
2019-05-05T00:03:41.218Z,4.00
2019-05-05T00:06:10.154Z,7.55
2019-05-05T00:08:39.073Z,14.03
2019-05-05T00:11:12.645Z,4.22
2019-05-05T00:13:44.758Z,12.20
2019-05-05T00:16:20.381Z,8.93
2019-05-05T00:18:50.299Z,9.77
2019-05-05T00:21:20.308Z,14.65
2019-05-05T00:23:58.447Z,14.23
2019-05-05T00:26:38.250Z,10.25
2019-05-05T00:29:07.138Z,10.93
2019-05-05T00:31:36.176Z,8.73
2019-05-05T00:34:15.731Z,5.92
2019-05-05T00:36:44.748Z,11.38
2019-05-05T00:39:14.942Z,6.35
2019-05-05T00:41:44.877Z,7.30
2019-05-05T00:44:15.341Z,7.78
2019-05-05T00:46:55.210Z,9.78
2019-05-05T00:49:26.351Z,5.20
2019-05-05T00:51:55.584Z,9.85
2019-05-05T00:54:25.943Z,11.28
2019-05-05T00:56:54.945Z,7.25
2019-05-05T00:59:25.459Z,4.12
2019-05-05T01:02:12.509Z,5.50
2019-05-05T01:04:46.972Z,8.18
2019-05-05T01:07:16.006Z,6.37
2019-05-05T01:09:45.250Z,12.15
2019-05-05T01:12:15.059Z,6.20
2019-05-05T01:14:44.761Z,6.08
2019-05-05T01:17:14.700Z,8.45
2019-05-05T01:19:46.679Z,6.87
2019-05-05T01:22:14.534Z,9.75
2019-05-05T01:24:45.748Z,8.28
2019-05-05T01:27:14.719Z,11.68
2019-05-05T01:29:45.205Z,6.10
2019-05-05T01:32:15.877Z,5.67
2019-05-05T01:34:48.160Z,5.08
2019-05-05T01:37:28.714Z,6.92
2019-05-05T01:40:05.431Z,9.68
2019-05-05T01:42:35.268Z,9.25
2019-05-05T01:45:04.629Z,9.68
2019-05-05T01:47:34.713Z,7.42
2019-05-05T01:50:17.695Z,7.72
2019-05-05T01:52:35.844Z,10.53
2019-05-05T01:55:06.459Z,12.25
2019-05-05T01:57:35.444Z,8.85
2019-05-05T02:00:06.849Z,7.10
2019-05-05T02:02:35.778Z,14.07
2019-05-05T02:05:06.776Z,11.15
2019-05-05T02:07:35.815Z,8.83
2019-05-05T02:10:06.633Z,10.90
2019-05-05T02:12:37.171Z,13.00
2019-05-05T02:15:08.236Z,10.58
2019-05-05T02:17:37.178Z,6.50
2019-05-05T02:20:07.342Z,12.65
2019-05-05T02:22:37.266Z,9.03
2019-05-05T02:25:07.318Z,11.43
2019-05-05T02:27:37.182Z,10.85
2019-05-05T02:30:17.930Z,15.18
2019-05-05T02:32:48.397Z,8.70
2019-05-05T02:35:17.338Z,13.13
2019-05-05T02:37:46.499Z,9.45
2019-05-05T02:40:16.413Z,10.85
2019-05-05T02:42:46.639Z,9.33
2019-05-05T02:45:24.891Z,13.62
2019-05-05T02:48:06.009Z,9.63
2019-05-05T02:51:00.129Z,8.15
2019-05-05T02:53:25.418Z,12.45
2019-05-05T02:55:57.609Z,13.40
2019-05-05T02:58:28.481Z,11.18
2019-05-05T03:00:59.555Z,10.23
2019-05-05T03:03:29.317Z,10.45
2019-05-05T03:06:00.008Z,11.43
2019-05-05T03:08:29.755Z,9.90
2019-05-05T03:11:00.505Z,10.60
2019-05-05T03:13:33.712Z,8.38
2019-05-05T03:16:20.953Z,8.58
2019-05-05T03:18:50.958Z,9.68
2019-05-05T03:21:20.900Z,8.58
2019-05-05T03:23:50.308Z,7.00
2019-05-05T03:26:19.896Z,7.17
2019-05-05T03:28:54.745Z,6.33
2019-05-05T03:31:26.246Z,8.53
2019-05-05T03:33:55.748Z,14.00
2019-05-05T03:36:26.139Z,9.58
2019-05-05T03:38:56.115Z,15.83
2019-05-05T03:41:30.807Z,9.98
2019-05-05T03:44:04.846Z,13.20
2019-05-05T03:46:35.532Z,11.22
2019-05-05T03:49:05.004Z,7.12
2019-05-05T03:51:34.696Z,13.18
2019-05-05T03:54:04.540Z,12.68
2019-05-05T03:56:34.778Z,10.30
2019-05-05T03:59:05.095Z,11.60
2019-05-05T04:01:54.693Z,10.28
2019-05-05T04:04:28.385Z,9.78
2019-05-05T04:06:58.874Z,10.28
2019-05-05T04:09:27.996Z,7.50
2019-05-05T04:11:57.007Z,8.93
2019-05-05T04:14:25.910Z,9.15
2019-05-05T04:17:03.656Z,6.40
2019-05-05T04:19:34.325Z,10.60
2019-05-05T04:22:04.237Z,10.72
2019-05-05T04:24:34.862Z,11.55
2019-05-05T04:27:05.534Z,8.43
2019-05-05T04:29:34.666Z,7.97
2019-05-05T04:32:04.884Z,9.70
2019-05-05T04:34:34.752Z,5.62
2019-05-05T04:37:04.267Z,10.43
2019-05-05T04:39:34.334Z,7.40
2019-05-05T04:42:04.801Z,10.05
2019-05-05T04:44:34.808Z,8.58
2019-05-05T04:47:11.249Z,6.03
2019-05-05T04:52:17.851Z,8.68
2019-05-05T04:54:48.387Z,9.33
2019-05-05T04:57:17.312Z,6.42
2019-05-05T04:59:47.695Z,7.30
2019-05-05T05:02:34.580Z,10.68
2019-05-05T05:05:08.041Z,7.92
2019-05-05T05:07:36.983Z,9.53
2019-05-05T05:10:07.691Z,14.90
2019-05-05T05:12:36.589Z,18.00
2019-05-05T05:15:06.325Z,10.05
2019-05-05T05:17:44.268Z,6.95
2019-05-05T05:20:14.201Z,10.23
2019-05-05T05:22:43.966Z,10.80
2019-05-05T05:25:13.571Z,5.85
2019-05-05T05:27:44.321Z,8.05
2019-05-05T05:30:13.870Z,8.93
2019-05-05T05:32:44.549Z,8.68
2019-05-05T05:35:14.237Z,7.30
2019-05-05T05:37:44.821Z,6.65
2019-05-05T05:40:15.638Z,7.40
2019-05-05T05:42:44.544Z,7.00
2019-05-05T05:45:15.011Z,7.10
2019-05-05T05:48:04.095Z,4.50
2019-05-05T05:50:34.933Z,8.13
2019-05-05T05:53:04.738Z,10.08
2019-05-05T05:55:34.363Z,7.55
2019-05-05T05:58:04.858Z,6.47
2019-05-05T06:00:34.490Z,8.60
2019-05-05T06:03:03.958Z,6.15
2019-05-05T06:05:34.432Z,7.37
2019-05-05T06:08:04.722Z,9.83
2019-05-05T06:10:34.058Z,8.70
2019-05-05T06:13:04.125Z,7.08
2019-05-05T06:15:33.885Z,5.25
2019-05-05T06:18:04.660Z,9.08
2019-05-05T06:20:34.392Z,7.95
2019-05-05T06:23:04.044Z,8.30
2019-05-05T06:25:34.185Z,9.20
2019-05-05T06:28:04.211Z,6.62
2019-05-05T06:30:33.772Z,5.25
2019-05-05T06:33:04.746Z,11.43
2019-05-05T06:35:33.790Z,4.87
2019-05-05T06:38:04.634Z,4.83
2019-05-05T06:40:50.251Z,7.67
2019-05-05T06:43:34.788Z,6.90
2019-05-05T06:46:20.250Z,7.97
2019-05-05T06:48:49.222Z,8.13
2019-05-05T06:51:19.093Z,6.37
2019-05-05T06:53:47.988Z,6.65
2019-05-05T06:56:16.936Z,4.95
2019-05-05T06:58:45.885Z,6.95
2019-05-05T07:01:14.894Z,5.75
2019-05-05T07:03:43.975Z,10.55
2019-05-05T07:06:14.616Z,5.25
2019-05-05T07:08:43.976Z,6.30
2019-05-05T07:11:14.558Z,9.58
2019-05-05T07:13:44.318Z,6.65
2019-05-05T07:16:14.905Z,5.95
2019-05-05T07:18:44.591Z,5.12
2019-05-05T07:21:14.271Z,5.92
2019-05-05T07:23:44.527Z,8.90
2019-05-05T07:26:14.352Z,5.50
2019-05-05T07:28:45.040Z,4.92
2019-05-05T07:31:14.322Z,4.03
2019-05-05T07:33:43.866Z,8.20
2019-05-05T07:36:30.893Z,6.85
2019-05-05T07:38:59.794Z,5.75
2019-05-05T07:41:28.794Z,4.75
2019-05-05T07:43:57.749Z,6.40
2019-05-05T07:46:26.655Z,7.12
2019-05-05T07:48:55.548Z,7.62
2019-05-05T07:51:24.711Z,3.55
2019-05-05T07:53:54.888Z,6.55
2019-05-05T07:56:25.239Z,10.38
2019-05-05T07:58:54.451Z,5.95
2019-05-05T08:01:24.473Z,5.62
2019-05-05T08:03:53.946Z,5.20
2019-05-05T08:06:23.707Z,11.00
2019-05-05T08:08:54.558Z,6.10
2019-05-05T08:11:23.848Z,3.83
2019-05-05T08:13:54.610Z,6.70
2019-05-05T08:16:37.487Z,8.83
2019-05-05T08:19:25.257Z,6.80
2019-05-05T08:21:54.308Z,8.13
2019-05-05T08:24:40.964Z,7.35
2019-05-05T08:27:17.275Z,4.50
2019-05-05T08:32:32.762Z,4.33
2019-05-05T08:35:01.343Z,5.03
2019-05-05T08:37:30.472Z,5.35
2019-05-05T08:39:59.431Z,5.10
2019-05-05T08:42:28.346Z,4.50
2019-05-05T08:44:57.235Z,7.20
2019-05-05T08:47:28.209Z,4.50
2019-05-05T08:49:56.758Z,3.87
2019-05-05T08:52:25.666Z,5.25
2019-05-05T08:54:54.622Z,2.30
2019-05-05T08:57:23.721Z,3.08
2019-05-05T08:59:54.500Z,4.17
2019-05-05T09:02:23.889Z,6.00
2019-05-05T09:04:53.803Z,5.00
2019-05-05T09:07:24.344Z,5.60
2019-05-05T09:09:54.640Z,6.20
2019-05-05T09:12:23.797Z,5.15
2019-05-05T09:14:53.866Z,4.80
2019-05-05T09:17:24.368Z,4.37
2019-05-05T09:19:53.801Z,4.17
2019-05-05T09:22:24.568Z,3.95
2019-05-05T09:25:04.381Z,3.67
2019-05-05T09:27:34.928Z,5.40
2019-05-05T09:30:04.971Z,4.75
2019-05-05T09:32:34.408Z,6.28
2019-05-05T09:35:04.778Z,2.25
2019-05-05T09:37:34.081Z,4.50
2019-05-05T09:40:04.500Z,2.58
2019-05-05T09:42:34.212Z,4.80
2019-05-05T09:45:04.783Z,2.77
2019-05-05T09:47:34.398Z,5.42
2019-05-05T09:50:04.398Z,4.40
2019-05-05T09:52:34.348Z,3.85
2019-05-05T09:55:03.925Z,3.40
2019-05-05T09:57:34.388Z,4.30
2019-05-05T10:00:08.279Z,2.37
2019-05-05T10:02:39.456Z,2.95
2019-05-05T10:05:09.075Z,4.87
2019-05-05T10:07:38.191Z,1.82
2019-05-05T10:10:07.752Z,3.05
2019-05-05T10:12:36.641Z,3.58
2019-05-05T10:15:07.792Z,5.15
2019-05-05T10:17:36.860Z,3.33
2019-05-05T10:20:07.115Z,5.03
2019-05-05T10:22:36.361Z,3.85
2019-05-05T10:25:26.172Z,2.92
2019-05-05T10:27:55.530Z,3.95
2019-05-05T10:30:24.458Z,4.78
2019-05-05T10:32:54.566Z,2.83
2019-05-05T10:35:23.942Z,3.65
2019-05-05T10:37:54.491Z,4.12
2019-05-05T10:40:25.201Z,5.95
2019-05-05T10:42:54.204Z,2.60
2019-05-05T10:45:24.448Z,4.92
2019-05-05T10:47:54.116Z,3.30
2019-05-05T10:50:24.667Z,3.72
2019-05-05T10:52:54.014Z,2.35
2019-05-05T10:55:24.039Z,3.08
2019-05-05T10:57:54.298Z,2.15
2019-05-05T11:00:47.134Z,2.77
2019-05-05T11:03:16.334Z,4.50
2019-05-05T11:05:46.915Z,1.30
2019-05-05T11:08:15.962Z,2.02
2019-05-05T11:10:45.286Z,3.92
2019-05-05T11:13:14.474Z,2.08
2019-05-05T11:15:44.393Z,3.33
2019-05-05T11:18:14.790Z,2.50
2019-05-05T11:20:44.901Z,4.20
2019-05-05T11:23:15.075Z,1.87
2019-05-05T11:25:44.458Z,4.37
2019-05-05T11:28:13.782Z,4.25
2019-05-05T11:30:45.712Z,3.17
2019-05-05T11:33:34.793Z,3.00
2019-05-05T11:36:08.128Z,3.70
2019-05-05T11:38:37.074Z,2.55
2019-05-05T11:41:06.001Z,4.97
2019-05-05T11:43:34.904Z,2.77
2019-05-05T11:46:03.974Z,3.58
2019-05-05T11:48:34.483Z,3.90
2019-05-05T11:51:04.478Z,3.12
2019-05-05T11:53:34.095Z,4.05
2019-05-05T11:56:04.199Z,4.33
2019-05-05T11:58:34.057Z,3.85
2019-05-05T12:01:03.710Z,6.08
2019-05-05T12:03:33.962Z,3.80
2019-05-05T12:06:04.038Z,3.60
2019-05-05T12:08:34.509Z,2.42
2019-05-05T12:11:04.916Z,3.02
2019-05-05T12:13:33.818Z,2.75
2019-05-05T12:16:04.789Z,1.67
2019-05-05T12:18:34.441Z,3.42
2019-05-05T12:21:05.141Z,4.35
2019-05-05T12:23:34.262Z,4.72
2019-05-05T12:26:16.911Z,2.00
2019-05-05T12:28:50.658Z,3.35
2019-05-05T12:31:27.111Z,4.92
2019-05-05T12:33:57.612Z,3.15
2019-05-05T12:36:26.523Z,4.30
2019-05-05T12:38:55.428Z,4.92
2019-05-05T12:41:24.386Z,2.25
2019-05-05T12:43:54.887Z,2.95
2019-05-05T12:46:34.441Z,7.55
2019-05-05T12:49:05.045Z,5.28
2019-05-05T12:51:34.348Z,4.83
2019-05-05T12:54:04.478Z,5.08
2019-05-05T12:56:34.096Z,5.70
2019-05-05T12:59:04.795Z,3.40
2019-05-05T13:01:37.977Z,3.25
2019-05-05T13:04:06.920Z,5.00
2019-05-05T13:06:35.857Z,3.65
2019-05-05T13:09:07.305Z,3.20
2019-05-05T13:11:36.689Z,3.92
2019-05-05T13:14:05.994Z,4.08
2019-05-05T13:16:34.955Z,4.40
2019-05-05T13:19:05.561Z,4.05
2019-05-05T13:21:44.806Z,6.67
2019-05-05T13:24:24.123Z,3.17
2019-05-05T13:26:54.643Z,6.55
2019-05-05T13:29:24.588Z,6.45
2019-05-05T13:31:54.430Z,5.37
2019-05-05T13:34:23.526Z,2.77
2019-05-05T13:36:52.422Z,5.30
2019-05-05T13:39:21.443Z,5.00
2019-05-05T13:41:50.410Z,5.20
2019-05-05T13:44:20.872Z,5.97
2019-05-05T13:46:49.800Z,3.08
2019-05-05T13:49:20.360Z,3.17
2019-05-05T13:51:49.288Z,5.33
2019-05-05T13:54:18.176Z,4.20
2019-05-05T13:56:47.230Z,4.53
2019-05-05T13:59:16.146Z,4.30
2019-05-05T14:01:45.050Z,2.65
2019-05-05T14:04:14.003Z,5.08
2019-05-05T14:06:44.466Z,4.62
2019-05-05T14:09:13.951Z,4.75
2019-05-05T14:11:44.533Z,4.10
2019-05-05T14:14:13.896Z,3.77
2019-05-05T14:16:44.683Z,3.55
2019-05-05T14:19:14.631Z,3.17
2019-05-05T14:21:44.545Z,3.58
2019-05-05T14:24:18.039Z,4.87
2019-05-05T14:26:46.971Z,8.38
2019-05-05T14:29:17.493Z,5.90
2019-05-05T14:31:46.407Z,7.60
2019-05-05T14:34:16.876Z,4.90
2019-05-05T14:36:47.463Z,3.70
2019-05-05T14:39:17.982Z,7.12
2019-05-05T14:41:46.904Z,3.77
2019-05-05T14:44:15.841Z,7.30
2019-05-05T14:46:44.786Z,4.12
2019-05-05T14:49:14.038Z,2.90
2019-05-05T14:51:44.656Z,3.83
2019-05-05T14:54:14.858Z,6.25
2019-05-05T14:56:44.159Z,5.95
2019-05-05T14:59:14.262Z,4.20
2019-05-05T15:01:44.718Z,5.37
2019-05-05T15:04:15.454Z,2.58
2019-05-05T15:06:48.617Z,3.62
2019-05-05T15:09:19.161Z,4.25
2019-05-05T15:11:58.428Z,4.15
2019-05-05T15:14:27.373Z,4.20
2019-05-05T15:16:56.287Z,4.78
2019-05-05T15:19:25.186Z,3.45
2019-05-05T15:21:54.151Z,3.42
2019-05-05T15:24:24.443Z,2.62
2019-05-05T15:26:54.997Z,4.37
2019-05-05T15:29:25.178Z,3.17
2019-05-05T15:31:54.299Z,2.92
2019-05-05T15:34:24.064Z,4.17
2019-05-05T15:36:54.699Z,6.37
2019-05-05T15:39:24.601Z,5.25
2019-05-05T15:41:54.228Z,5.92
2019-05-05T15:44:24.084Z,3.47
2019-05-05T15:46:57.601Z,3.92
2019-05-05T15:49:24.017Z,2.55
2019-05-05T15:51:53.930Z,4.33
2019-05-05T15:54:23.664Z,3.42
2019-05-05T15:57:04.966Z,5.30
2019-05-05T15:59:23.857Z,5.30
2019-05-05T16:01:54.740Z,3.83
2019-05-05T16:04:23.756Z,2.12
2019-05-05T16:06:54.053Z,3.15
2019-05-05T16:09:23.183Z,2.20
2019-05-05T16:11:54.411Z,3.85
2019-05-05T16:14:25.655Z,3.67
2019-05-05T16:16:56.198Z,3.47
2019-05-05T16:19:28.076Z,2.75
2019-05-05T16:21:58.752Z,6.75
2019-05-05T16:24:29.247Z,3.85
2019-05-05T16:26:58.193Z,3.70
2019-05-05T16:29:27.109Z,5.03
2019-05-05T16:31:56.009Z,3.75
2019-05-05T16:34:24.958Z,3.12
2019-05-05T16:36:54.563Z,3.52
2019-05-05T16:39:25.685Z,2.55
2019-05-05T16:41:54.794Z,2.12
2019-05-05T16:44:23.698Z,1.17
2019-05-05T16:46:53.984Z,2.55
2019-05-05T16:49:23.073Z,3.05
2019-05-05T16:51:54.500Z,1.05
2019-05-05T16:54:25.156Z,1.62
2019-05-05T16:56:54.056Z,3.17
2019-05-05T16:59:23.745Z,5.55
2019-05-05T17:01:54.110Z,3.22
2019-05-05T17:04:24.324Z,2.65
2019-05-05T17:06:54.700Z,2.75
2019-05-05T17:09:24.150Z,2.87
2019-05-05T17:12:11.319Z,3.85
2019-05-05T17:14:44.427Z,4.65
2019-05-05T17:17:31.156Z,4.40
2019-05-05T17:20:04.788Z,5.55
2019-05-05T17:22:35.323Z,6.22
2019-05-05T17:25:04.904Z,11.30
2019-05-05T17:27:47.020Z,6.35
2019-05-05T17:30:06.102Z,4.75
2019-05-05T17:32:35.006Z,6.75
2019-05-05T17:35:04.011Z,4.33
2019-05-05T17:37:33.565Z,6.75
2019-05-05T17:40:20.439Z,10.82
2019-05-05T17:42:58.171Z,10.20
2019-05-05T17:45:31.444Z,7.40
2019-05-05T17:48:07.702Z,5.37
2019-05-05T17:50:56.043Z,7.40
2019-05-05T17:53:29.272Z,5.92
2019-05-05T17:55:59.741Z,9.48
2019-05-05T17:58:28.767Z,8.55
2019-05-05T18:00:59.233Z,7.65
2019-05-05T18:03:28.122Z,7.45
2019-05-05T18:05:58.636Z,5.97
2019-05-05T18:08:41.254Z,11.48
2019-05-05T18:11:13.518Z,6.37
2019-05-05T18:14:00.135Z,4.72
2019-05-05T18:16:30.223Z,4.03
2019-05-05T18:18:59.128Z,6.00
2019-05-05T18:21:31.736Z,5.37
2019-05-05T18:23:58.917Z,5.67
2019-05-05T18:26:27.801Z,9.60
2019-05-05T18:28:56.696Z,5.45
2019-05-05T18:31:25.670Z,5.12
2019-05-05T18:33:54.563Z,9.03
2019-05-05T18:36:23.476Z,4.92
2019-05-05T18:38:53.880Z,4.85
2019-05-05T18:41:27.460Z,3.42
2019-05-05T18:43:57.990Z,2.92
2019-05-05T18:46:26.944Z,5.28
2019-05-05T18:48:55.903Z,6.25
2019-05-05T18:51:24.843Z,7.25
2019-05-05T18:53:55.012Z,6.87
2019-05-05T18:56:24.056Z,4.75
2019-05-05T18:58:54.306Z,5.20
2019-05-05T19:01:27.527Z,2.42
2019-05-05T19:04:04.379Z,3.87
2019-05-05T19:06:40.711Z,3.83
2019-05-05T19:09:11.217Z,4.10
2019-05-05T19:11:41.038Z,7.12
2019-05-05T19:14:09.974Z,2.80
2019-05-05T19:16:38.997Z,4.95
2019-05-05T19:19:07.884Z,3.60
2019-05-05T19:21:38.400Z,5.12
2019-05-05T19:24:07.358Z,4.47
2019-05-05T19:26:36.262Z,10.53
2019-05-05T19:29:05.244Z,4.42
2019-05-05T19:31:36.342Z,4.97
2019-05-05T19:34:04.873Z,8.00
2019-05-05T19:36:34.286Z,5.95
2019-05-05T19:39:04.121Z,9.33
2019-05-05T19:41:34.822Z,6.80
2019-05-05T19:44:04.827Z,4.92
2019-05-05T19:46:51.845Z,6.22
2019-05-05T19:49:20.809Z,6.55
2019-05-05T19:51:50.669Z,5.70
2019-05-05T19:54:19.572Z,7.90
2019-05-05T19:56:48.512Z,6.78
2019-05-05T19:59:17.462Z,10.95
2019-05-05T20:01:46.337Z,9.70
2019-05-05T20:04:15.265Z,8.58
2019-05-05T20:06:44.482Z,8.18
2019-05-05T20:09:14.198Z,6.53
2019-05-05T20:11:43.920Z,8.53
2019-05-05T20:14:15.131Z,11.25
2019-05-05T20:17:04.261Z,7.45
2019-05-05T20:19:35.494Z,6.60
2019-05-05T20:22:04.621Z,4.42
2019-05-05T20:24:33.761Z,8.43
2019-05-05T20:27:04.614Z,6.58
2019-05-05T20:29:37.051Z,8.60
2019-05-05T20:32:04.433Z,7.00
2019-05-05T20:34:51.377Z,11.78
2019-05-05T20:39:50.967Z,10.08
2019-05-05T20:42:19.904Z,5.03
2019-05-05T20:44:48.803Z,11.25
2019-05-05T20:47:17.706Z,11.57
2019-05-05T20:49:46.699Z,10.15
2019-05-05T20:52:15.636Z,6.28
2019-05-05T20:54:44.536Z,17.67
2019-05-05T20:57:13.486Z,11.60
2019-05-05T20:59:44.378Z,7.10
2019-05-05T21:02:13.677Z,6.92
2019-05-05T21:04:44.593Z,9.58
2019-05-05T21:07:14.031Z,12.90
2019-05-05T21:09:43.177Z,12.07
2019-05-05T21:12:13.833Z,18.70
2019-05-05T21:14:44.618Z,13.62
2019-05-05T21:17:15.540Z,14.55
2019-05-05T21:19:44.504Z,13.32
2019-05-05T21:22:27.043Z,12.20
2019-05-05T21:24:56.948Z,14.63
2019-05-05T21:27:25.848Z,10.38
2019-05-05T21:29:54.784Z,12.00
2019-05-05T21:32:25.389Z,14.25
2019-05-05T21:34:54.431Z,13.40
2019-05-05T21:37:24.876Z,7.45
2019-05-05T21:39:55.215Z,18.12
2019-05-05T21:42:24.425Z,11.53
2019-05-05T21:44:54.304Z,13.95
2019-05-05T21:47:23.984Z,9.13
2019-05-05T21:49:54.270Z,10.38
2019-05-05T21:52:32.100Z,13.65
2019-05-05T21:55:04.216Z,13.62
2019-05-05T21:57:34.848Z,9.05
2019-05-05T22:00:06.906Z,7.80
2019-05-05T22:02:35.816Z,13.15
2019-05-05T22:05:06.445Z,9.28
2019-05-05T22:07:35.393Z,12.50
2019-05-05T22:10:05.248Z,17.30
2019-05-05T22:12:36.370Z,12.03
2019-05-05T22:15:06.029Z,17.40
2019-05-05T22:17:36.496Z,11.73
2019-05-05T22:20:14.324Z,10.30
2019-05-05T22:22:46.512Z,12.53
2019-05-05T22:25:15.501Z,9.90
2019-05-05T22:27:44.436Z,7.83
2019-05-05T22:30:14.260Z,6.10
2019-05-05T22:32:44.091Z,11.00
2019-05-05T22:35:14.013Z,7.45
2019-05-05T22:37:44.149Z,12.40
2019-05-05T22:40:24.386Z,9.55
2019-05-05T22:42:54.663Z,5.17
2019-05-05T22:45:23.945Z,5.90
2019-05-05T22:47:54.309Z,8.33
2019-05-05T22:50:24.674Z,7.90
2019-05-05T22:52:54.497Z,12.43
2019-05-05T22:55:24.751Z,10.08
2019-05-05T22:57:54.382Z,10.60
2019-05-05T23:00:29.236Z,7.53
2019-05-05T23:02:59.244Z,13.38
2019-05-05T23:05:44.864Z,2.90
2019-05-05T23:08:18.012Z,7.50
2019-05-05T23:10:45.388Z,6.85
2019-05-05T23:13:14.341Z,16.27
2019-05-05T23:15:44.800Z,6.78
2019-05-05T23:18:18.084Z,12.30
2019-05-05T23:21:07.287Z,10.28
2019-05-05T23:23:56.031Z,5.92
2019-05-05T23:26:27.776Z,11.60
2019-05-05T23:28:56.724Z,13.98
2019-05-05T23:31:25.632Z,7.50
2019-05-05T23:33:54.950Z,12.53
2019-05-05T23:36:24.297Z,11.63
2019-05-05T23:38:54.914Z,11.12
2019-05-05T23:41:24.129Z,11.95
2019-05-05T23:43:54.475Z,8.88
2019-05-05T23:46:24.119Z,11.40
2019-05-05T23:48:53.796Z,10.15
2019-05-05T23:51:24.245Z,10.18
2019-05-05T23:53:55.024Z,7.65
2019-05-05T23:56:24.157Z,9.10
2019-05-05T23:58:54.928Z,7.37
